Black Eagle, Montana
Current Conditions -  °F | °C
As of 12:00 AM on Sunday 26 Oct 2014 (Local Time) from KGFA Reporting Station
Broken Clouds Broken Clouds  
Wind Chill: 52°   Ceiling: 10000
Heat Index: 52°   Visibility: 10mi
Dew Point: 41°   Wind: 12mph
Humidity: 67%   Direction: 220°SW
Pressure: 29.64"   Gusts: NA
Location:  47.53°N, 111.28°W
Report Text: KGFA 260600Z AUTO 22010KT 10SM BKN100 11/05 A2964 RMK AO2 WSHFT 0551
Loading
Personal Weather Stations






























Interactive Weather Map
Tropical Storm Tracking
New forecast layout! Learn more

10-Day Weather Forecast

Advertisements
Track Severe Weather on mobile